Main page
METAR-TAF:

METAR-TAF

Airports :

Rajkot Airport

Rajkot, India

latitude: 22-18N, longitude: 070-47E, elevation: 134 m

Current weather observation

The report was made 6 hours and 37 minutes ago, at 13:00 UTC
Wind 6 kt from the Southwest
Temperature 34°C
Humidity 53%
Pressure 996 hPa
Visibility: 6000 m
Few clouds at a height of 2000 ft

METAR: VARK 251300Z 23006KT 6000 FEW020 34/23 Q0996 NOSIG

Time: 01:07 (19:37 UTC)

Forecast

The report was made 2 hours and 37 minutes ago, at 17:00 UTC
Forecast valid from 25 at 18 UTC to 26 at 03 UTC
Wind 6 kt from the West
Visibility: 6000 m
Scattered clouds at a height of 2000 ft
Scattered clouds at a height of 8000 ft
Becoming
from 25 at 22 UTC to 25 at 24 UTC
Wind 4 kt from the Northwest
Becoming
from 26 at 01 UTC to 26 at 03 UTC
Visibility: 4000 m
Scattered clouds at a height of 1200 ft
Scattered clouds at a height of 2000 ft
haze

TAF: VARK 251700Z 2518/2603 26006KT 6000 SCT020 SCT080 BECMG 2522/2524 31004KT BECMG 2601/2603 4000 HZ SCT012 SCT020

Weather observations and forecasts of more than 4000 airports (METAR and TAF reports).

The available stations are represented by yellow and red dots on the map.

Hover mouse over dot to see the name of the station.

Then click to see weather observations and forecasts.

To change the map : click on the green buttons with a black cross to zoom in, on the green button with a dash to zoom out, or on the green arrows for adjacent maps.


METAR-TAF: